createdAt,value
2023-05-03T00:02:12.244Z,13.40
2023-05-03T00:04:46.407Z,13.12
2023-05-03T00:07:19.603Z,12.97
2023-05-03T00:09:52.359Z,12.46
2023-05-03T00:12:26.812Z,13.11
2023-05-03T00:14:59.612Z,12.83
2023-05-03T00:17:32.467Z,12.63
2023-05-03T00:20:05.734Z,13.16
2023-05-03T00:22:38.760Z,13.37
2023-05-03T00:25:11.473Z,12.82
2023-05-03T00:27:45.591Z,13.28
2023-05-03T00:30:19.613Z,12.95
2023-05-03T00:32:52.817Z,13.39
2023-05-03T00:35:25.605Z,13.49
2023-05-03T00:37:58.278Z,13.90
2023-05-03T00:40:31.175Z,13.80
2023-05-03T00:43:05.256Z,12.70
2023-05-03T00:45:38.361Z,13.47
2023-05-03T00:48:11.744Z,13.41
2023-05-03T00:50:44.801Z,13.55
2023-05-03T00:53:17.848Z,13.85
2023-05-03T00:55:53.015Z,13.00
2023-05-03T00:58:27.088Z,12.56
2023-05-03T01:01:00.131Z,12.75
2023-05-03T01:03:33.271Z,12.47
2023-05-03T01:06:09.756Z,12.42
2023-05-03T01:08:45.559Z,12.87
2023-05-03T01:11:22.984Z,13.52
2023-05-03T01:13:58.412Z,13.67
2023-05-03T01:16:36.405Z,13.81
2023-05-03T01:19:15.262Z,13.67
2023-05-03T01:21:52.365Z,13.68
2023-05-03T01:24:27.449Z,13.72
2023-05-03T01:27:02.275Z,13.72
2023-05-03T01:29:35.474Z,12.97
2023-05-03T01:32:10.364Z,12.47
2023-05-03T01:34:46.929Z,12.99
2023-05-03T01:37:19.679Z,12.59
2023-05-03T01:39:55.282Z,12.99
2023-05-03T01:42:30.812Z,12.73
2023-05-03T01:45:05.276Z,13.44
2023-05-03T01:47:38.289Z,12.68
2023-05-03T01:50:11.653Z,13.21
2023-05-03T01:52:45.307Z,13.22
2023-05-03T01:55:18.152Z,13.20
2023-05-03T01:57:52.244Z,12.82
2023-05-03T02:00:25.021Z,12.14
2023-05-03T02:02:58.481Z,12.64
2023-05-03T02:05:31.471Z,12.62
2023-05-03T02:08:04.272Z,12.73
2023-05-03T02:10:37.031Z,12.57
2023-05-03T02:13:11.077Z,11.91
2023-05-03T02:15:44.460Z,12.30
2023-05-03T02:18:18.562Z,13.03
2023-05-03T02:20:51.422Z,12.30
2023-05-03T02:23:24.212Z,12.18
2023-05-03T02:25:56.988Z,12.27
2023-05-03T02:28:32.088Z,12.56
2023-05-03T02:31:06.345Z,12.42
2023-05-03T02:33:39.536Z,11.91
2023-05-03T02:36:13.207Z,11.80
2023-05-03T02:38:46.067Z,11.88
2023-05-03T02:41:19.125Z,12.38
2023-05-03T02:43:53.511Z,12.04
2023-05-03T02:46:26.568Z,11.88
2023-05-03T02:48:59.660Z,11.74
2023-05-03T02:51:33.124Z,11.75
2023-05-03T02:54:05.899Z,12.30
2023-05-03T02:56:38.721Z,12.20
2023-05-03T02:59:12.988Z,12.46
2023-05-03T03:01:47.070Z,12.31
2023-05-03T03:04:19.882Z,11.83
2023-05-03T03:06:53.573Z,11.91
2023-05-03T03:09:26.610Z,12.18
2023-05-03T03:11:59.751Z,11.89
2023-05-03T03:14:34.178Z,11.62
2023-05-03T03:17:09.942Z,12.41
2023-05-03T03:19:42.681Z,12.14
2023-05-03T03:22:17.812Z,12.20
2023-05-03T03:24:50.974Z,11.89
2023-05-03T03:27:24.183Z,11.27
2023-05-03T03:29:58.223Z,11.44
2023-05-03T03:32:31.392Z,11.99
2023-05-03T03:35:04.564Z,12.19
2023-05-03T03:37:37.450Z,11.65
2023-05-03T03:40:11.499Z,12.23
2023-05-03T03:42:44.509Z,11.80
2023-05-03T03:45:18.982Z,12.63
2023-05-03T03:47:53.426Z,12.75
2023-05-03T03:50:26.605Z,12.00
2023-05-03T03:52:59.378Z,11.80
2023-05-03T03:55:32.360Z,12.45
2023-05-03T03:58:05.041Z,12.20
2023-05-03T04:00:39.443Z,11.67
2023-05-03T04:03:12.255Z,12.04
2023-05-03T04:05:45.966Z,11.53
2023-05-03T04:08:18.700Z,11.99
2023-05-03T04:10:51.795Z,11.39
2023-05-03T04:13:24.598Z,11.56
2023-05-03T04:15:58.856Z,11.62
2023-05-03T04:18:31.966Z,11.91
2023-05-03T04:21:04.974Z,11.30
2023-05-03T04:23:38.587Z,11.32
2023-05-03T04:26:23.567Z,11.49
2023-05-03T04:29:03.949Z,10.69
2023-05-03T04:31:38.064Z,10.43
2023-05-03T04:34:15.005Z,10.36
2023-05-03T04:36:49.126Z,10.68
2023-05-03T04:39:22.145Z,10.85
2023-05-03T04:41:55.209Z,10.35
2023-05-03T04:44:27.945Z,10.77
2023-05-03T04:47:02.821Z,10.84
2023-05-03T04:49:35.758Z,10.46
2023-05-03T04:52:10.316Z,10.19
2023-05-03T04:54:43.085Z,10.37
2023-05-03T04:57:16.132Z,10.56
2023-05-03T04:59:50.034Z,10.32
2023-05-03T05:02:24.814Z,10.42
2023-05-03T05:04:57.642Z,10.56
2023-05-03T05:07:30.718Z,10.16
2023-05-03T05:10:03.949Z,10.37
2023-05-03T05:12:37.070Z,10.25
2023-05-03T05:15:10.280Z,10.20
2023-05-03T05:17:45.012Z,10.19
2023-05-03T05:20:18.974Z,10.14
2023-05-03T05:22:51.990Z,10.48
2023-05-03T05:25:24.847Z,10.37
2023-05-03T05:27:57.929Z,10.10
2023-05-03T05:30:31.529Z,10.60
2023-05-03T05:33:06.283Z,10.28
2023-05-03T05:35:39.480Z,10.03
2023-05-03T05:38:12.455Z,10.20
2023-05-03T05:40:45.405Z,9.94
2023-05-03T05:43:18.145Z,10.29
2023-05-03T05:45:51.242Z,10.24
2023-05-03T05:48:25.488Z,10.24
2023-05-03T05:50:58.235Z,10.69
2023-05-03T05:53:31.219Z,10.42
2023-05-03T05:56:04.037Z,10.68
2023-05-03T05:58:38.255Z,10.36
2023-05-03T06:01:11.208Z,10.91
2023-05-03T06:03:45.666Z,11.24
2023-05-03T06:06:18.596Z,11.15
2023-05-03T06:08:51.863Z,11.35
2023-05-03T06:11:24.740Z,11.17
2023-05-03T06:13:57.806Z,10.77
2023-05-03T06:16:31.048Z,10.58
2023-05-03T06:19:05.652Z,10.99
2023-05-03T06:21:38.869Z,11.32
2023-05-03T06:24:11.552Z,11.47
2023-05-03T06:26:44.408Z,11.48
2023-05-03T06:29:17.099Z,11.31
2023-05-03T06:31:50.258Z,11.74
2023-05-03T06:34:24.678Z,11.97
2023-05-03T06:36:57.429Z,11.48
2023-05-03T06:39:30.157Z,11.42
2023-05-03T06:42:03.201Z,10.96
2023-05-03T06:44:36.257Z,11.37
2023-05-03T06:47:09.255Z,11.95
2023-05-03T06:49:43.494Z,11.40
2023-05-03T06:52:16.398Z,11.74
2023-05-03T06:54:49.372Z,12.24
2023-05-03T06:57:22.888Z,12.73
2023-05-03T06:59:55.602Z,12.37
2023-05-03T07:02:29.160Z,11.93
2023-05-03T07:05:03.360Z,11.97
2023-05-03T07:07:36.568Z,12.69
2023-05-03T07:10:09.718Z,13.17
2023-05-03T07:12:42.648Z,12.90
2023-05-03T07:15:15.646Z,12.88
2023-05-03T07:17:48.561Z,13.05
2023-05-03T07:20:22.840Z,13.52
2023-05-03T07:22:55.853Z,13.35
2023-05-03T07:25:28.684Z,13.74
2023-05-03T07:28:01.591Z,13.68
2023-05-03T07:30:34.299Z,13.28
2023-05-03T07:33:07.237Z,13.27
2023-05-03T07:35:41.544Z,13.14
2023-05-03T07:38:14.300Z,12.97
2023-05-03T07:40:47.658Z,13.64
2023-05-03T07:43:23.670Z,13.65
2023-05-03T07:45:56.531Z,13.90
2023-05-03T07:48:29.304Z,13.56
2023-05-03T07:51:04.641Z,13.80
2023-05-03T07:53:39.980Z,14.09
2023-05-03T07:56:13.248Z,13.67
2023-05-03T07:58:48.639Z,13.91
2023-05-03T08:01:23.953Z,14.30
2023-05-03T08:03:58.722Z,14.44
2023-05-03T08:06:35.505Z,14.28
2023-05-03T08:09:09.022Z,14.57
2023-05-03T08:11:44.144Z,14.72
2023-05-03T08:14:17.397Z,14.83
2023-05-03T08:16:50.415Z,14.82
2023-05-03T08:19:23.303Z,14.39
2023-05-03T08:21:58.360Z,14.52
2023-05-03T08:24:31.128Z,14.33
2023-05-03T08:27:03.785Z,14.83
2023-05-03T08:29:37.663Z,14.66
2023-05-03T08:32:10.857Z,14.43
2023-05-03T08:34:44.304Z,14.49
2023-05-03T08:37:18.939Z,14.97
2023-05-03T08:39:52.256Z,15.15
2023-05-03T08:42:25.871Z,14.89
2023-05-03T08:44:58.789Z,14.69
2023-05-03T08:47:35.809Z,14.89
2023-05-03T08:50:09.957Z,15.00
2023-05-03T08:52:44.536Z,15.05
2023-05-03T08:55:17.622Z,14.91
2023-05-03T08:57:50.411Z,15.07
2023-05-03T09:00:29.068Z,14.87
2023-05-03T09:03:01.898Z,15.13
2023-05-03T09:05:38.745Z,14.93
2023-05-03T09:08:14.634Z,15.02
2023-05-03T09:10:47.326Z,15.14
2023-05-03T09:13:20.360Z,15.22
2023-05-03T09:15:57.154Z,15.17
2023-05-03T09:18:30.688Z,15.07
2023-05-03T09:21:03.642Z,15.02
2023-05-03T09:23:37.906Z,15.27
2023-05-03T09:26:13.347Z,15.08
2023-05-03T09:28:46.181Z,15.04
2023-05-03T09:31:19.039Z,14.92
2023-05-03T09:33:53.514Z,15.30
2023-05-03T09:36:27.680Z,15.11
2023-05-03T09:39:17.002Z,15.19
2023-05-03T09:41:50.272Z,15.60
2023-05-03T09:44:41.350Z,15.52
2023-05-03T09:47:14.127Z,15.74
2023-05-03T09:49:47.210Z,15.59
2023-05-03T09:52:23.292Z,15.54
2023-05-03T09:54:57.566Z,15.41
2023-05-03T09:57:30.817Z,15.39
2023-05-03T10:00:04.782Z,15.30
2023-05-03T10:02:38.056Z,15.15
2023-05-03T10:05:12.745Z,15.48
2023-05-03T10:07:45.886Z,15.29
2023-05-03T10:10:21.260Z,15.39
2023-05-03T10:12:54.646Z,14.98
2023-05-03T10:15:29.138Z,14.94
2023-05-03T10:18:03.583Z,15.05
2023-05-03T10:20:41.354Z,15.11
2023-05-03T10:23:15.120Z,15.00
2023-05-03T10:26:22.588Z,14.78
2023-05-03T10:28:57.356Z,14.95
2023-05-03T10:31:45.159Z,15.01
2023-05-03T10:34:21.260Z,14.67
2023-05-03T10:36:54.558Z,14.98
2023-05-03T10:39:28.653Z,15.18
2023-05-03T10:42:03.582Z,14.94
2023-05-03T10:44:40.269Z,14.94
2023-05-03T10:47:14.166Z,14.85
2023-05-03T10:49:47.457Z,14.92
2023-05-03T10:52:50.047Z,15.13
2023-05-03T10:55:24.794Z,14.75
2023-05-03T10:57:59.360Z,14.50
2023-05-03T11:00:37.112Z,14.40
2023-05-03T11:03:33.721Z,14.27
2023-05-03T11:06:06.999Z,14.36
2023-05-03T11:08:40.332Z,14.91
2023-05-03T11:11:13.306Z,14.96
2023-05-03T11:13:46.314Z,14.88
2023-05-03T11:16:21.438Z,14.92
2023-05-03T11:18:54.995Z,14.94
2023-05-03T11:21:27.926Z,14.79
2023-05-03T11:24:10.977Z,14.61
2023-05-03T11:26:44.118Z,14.32
2023-05-03T11:29:17.708Z,14.67
2023-05-03T11:31:52.888Z,14.90
2023-05-03T11:34:25.759Z,15.04
2023-05-03T11:36:59.805Z,14.51
2023-05-03T11:39:33.469Z,14.42
2023-05-03T11:42:07.171Z,14.74
2023-05-03T11:44:40.000Z,14.54
2023-05-03T11:47:14.347Z,14.71
2023-05-03T11:49:52.498Z,14.59
2023-05-03T11:52:28.548Z,14.64
2023-05-03T11:55:01.576Z,15.05
2023-05-03T11:57:34.569Z,14.80
2023-05-03T12:00:17.438Z,14.87
2023-05-03T12:02:51.961Z,14.74
2023-05-03T12:05:25.020Z,14.81
2023-05-03T12:07:58.715Z,15.04
2023-05-03T12:10:33.407Z,15.20
2023-05-03T12:13:08.975Z,15.22
2023-05-03T12:15:43.793Z,15.03
2023-05-03T12:21:29.992Z,15.35
2023-05-03T12:23:51.777Z,15.46
2023-05-03T12:26:25.789Z,15.35
2023-05-03T12:29:00.470Z,15.41
2023-05-03T12:31:39.270Z,15.56
2023-05-03T12:34:32.723Z,15.49
2023-05-03T12:37:11.024Z,15.22
2023-05-03T12:39:45.971Z,15.28
2023-05-03T12:42:24.053Z,15.49
2023-05-03T12:44:58.313Z,15.28
2023-05-03T12:47:34.214Z,15.50
2023-05-03T12:50:12.711Z,15.53
2023-05-03T12:52:45.929Z,15.77
2023-05-03T12:55:19.299Z,15.69
2023-05-03T12:58:10.311Z,15.48
2023-05-03T13:01:22.061Z,15.47
2023-05-03T13:03:43.692Z,15.41
2023-05-03T13:06:19.382Z,15.67
2023-05-03T13:08:52.512Z,15.94
2023-05-03T13:11:26.509Z,15.82
2023-05-03T13:13:59.604Z,15.59
2023-05-03T13:16:33.744Z,15.67
2023-05-03T13:19:07.006Z,15.66
2023-05-03T13:21:41.162Z,15.79
2023-05-03T13:24:19.772Z,15.62
2023-05-03T13:26:53.093Z,15.63
2023-05-03T13:29:26.903Z,15.59
2023-05-03T13:32:00.155Z,15.89
2023-05-03T13:34:33.054Z,15.86
2023-05-03T13:37:07.643Z,15.73
2023-05-03T13:39:40.814Z,15.71
2023-05-03T13:42:13.697Z,15.77
2023-05-03T13:44:47.875Z,15.88
2023-05-03T13:47:20.938Z,15.92
2023-05-03T13:49:56.254Z,16.06
2023-05-03T13:52:30.301Z,16.07
2023-05-03T13:55:04.387Z,16.18
2023-05-03T13:57:37.377Z,16.11
2023-05-03T14:00:10.735Z,16.13
2023-05-03T14:02:43.634Z,16.09
2023-05-03T14:05:16.734Z,16.05
2023-05-03T14:07:51.152Z,16.03
2023-05-03T14:10:24.300Z,15.82
2023-05-03T14:12:58.241Z,16.21
2023-05-03T14:15:31.357Z,16.25
2023-05-03T14:18:05.915Z,16.37
2023-05-03T14:20:39.454Z,16.22
2023-05-03T14:23:13.908Z,16.26
2023-05-03T14:25:46.769Z,16.16
2023-05-03T14:28:20.370Z,16.05
2023-05-03T14:30:53.666Z,16.11
2023-05-03T14:33:26.663Z,16.23
2023-05-03T14:35:59.673Z,16.18
2023-05-03T14:38:33.940Z,16.17
2023-05-03T14:41:07.901Z,16.18
2023-05-03T14:43:40.897Z,16.07
2023-05-03T14:46:13.811Z,16.04
2023-05-03T14:48:46.842Z,16.06
2023-05-03T14:51:20.228Z,16.08
2023-05-03T14:53:55.427Z,16.14
2023-05-03T14:56:28.682Z,16.23
2023-05-03T14:59:01.979Z,16.09
2023-05-03T15:01:36.218Z,16.09
2023-05-03T15:04:13.589Z,16.13
2023-05-03T15:06:46.887Z,16.15
2023-05-03T15:09:21.147Z,16.12
2023-05-03T15:11:54.134Z,16.25
2023-05-03T15:14:27.210Z,16.26
2023-05-03T15:17:00.355Z,16.18
2023-05-03T15:19:33.414Z,16.19
2023-05-03T15:22:06.638Z,16.24
2023-05-03T15:24:41.498Z,16.31
2023-05-03T15:27:14.508Z,16.17
2023-05-03T15:29:47.446Z,16.16
2023-05-03T15:32:20.495Z,16.24
2023-05-03T15:34:53.632Z,16.17
2023-05-03T15:37:36.054Z,16.17
2023-05-03T15:40:14.216Z,16.15
2023-05-03T15:42:47.280Z,16.18
2023-05-03T15:45:23.481Z,16.17
2023-05-03T15:47:57.173Z,16.16
2023-05-03T15:50:31.128Z,16.26
2023-05-03T15:53:04.193Z,16.24
2023-05-03T15:55:38.832Z,16.10
2023-05-03T15:58:12.241Z,15.97
2023-05-03T16:00:45.292Z,15.94
2023-05-03T16:03:18.644Z,16.05
2023-05-03T16:05:51.628Z,16.04
2023-05-03T16:08:27.593Z,16.02
2023-05-03T16:11:02.052Z,15.98
2023-05-03T16:13:35.311Z,15.97
2023-05-03T16:16:08.516Z,15.99
2023-05-03T16:18:41.687Z,15.81
2023-05-03T16:21:19.178Z,15.68
2023-05-03T16:23:55.626Z,15.93
2023-05-03T16:26:31.885Z,15.83
2023-05-03T16:29:05.879Z,15.80
2023-05-03T16:31:38.870Z,15.87
2023-05-03T16:34:12.148Z,15.82
2023-05-03T16:36:45.641Z,15.80
2023-05-03T16:39:19.906Z,15.71
2023-05-03T16:41:54.158Z,15.61
2023-05-03T16:44:27.142Z,15.77
2023-05-03T16:47:00.474Z,15.72
2023-05-03T16:49:34.304Z,15.50
2023-05-03T16:52:10.092Z,15.70
2023-05-03T16:54:43.591Z,15.60
2023-05-03T16:57:17.930Z,15.59
2023-05-03T16:59:51.065Z,15.54
2023-05-03T17:02:27.301Z,15.44
2023-05-03T17:05:01.154Z,15.14
2023-05-03T17:07:34.405Z,15.12
2023-05-03T17:10:10.963Z,15.28
2023-05-03T17:12:48.082Z,15.34
2023-05-03T17:15:21.452Z,15.28
2023-05-03T17:18:01.330Z,15.12
2023-05-03T17:20:37.358Z,15.06
2023-05-03T17:23:12.795Z,15.17
2023-05-03T17:25:48.159Z,15.10
2023-05-03T17:28:22.500Z,15.19
2023-05-03T17:30:58.617Z,15.14
2023-05-03T17:33:31.591Z,14.84
2023-05-03T17:36:08.769Z,14.80
2023-05-03T17:38:45.640Z,14.97
2023-05-03T17:41:23.599Z,14.94
2023-05-03T17:43:58.531Z,15.07
2023-05-03T17:46:33.073Z,15.17
2023-05-03T17:49:08.282Z,14.96
2023-05-03T17:51:43.504Z,14.84
2023-05-03T17:54:22.636Z,14.87
2023-05-03T17:56:55.704Z,14.90
2023-05-03T17:59:32.330Z,14.82
2023-05-03T18:02:05.766Z,14.91
2023-05-03T18:04:39.966Z,14.53
2023-05-03T18:07:14.057Z,14.65
2023-05-03T18:09:47.033Z,14.70
2023-05-03T18:12:26.062Z,14.44
2023-05-03T18:15:00.826Z,14.49
2023-05-03T18:17:37.264Z,14.20
2023-05-03T18:20:14.395Z,14.15
2023-05-03T18:22:53.333Z,14.01
2023-05-03T18:25:26.701Z,14.14
2023-05-03T18:27:59.681Z,14.02
2023-05-03T18:30:35.194Z,13.92
2023-05-03T18:33:08.285Z,14.03
2023-05-03T18:35:41.517Z,13.85
2023-05-03T18:38:16.508Z,13.72
2023-05-03T18:40:51.799Z,13.61
2023-05-03T18:43:28.816Z,13.45
2023-05-03T18:46:05.735Z,13.53
2023-05-03T18:48:41.170Z,13.55
2023-05-03T18:51:14.577Z,13.39
2023-05-03T18:53:55.023Z,13.16
2023-05-03T18:56:30.493Z,13.13
2023-05-03T18:59:06.585Z,13.20
2023-05-03T19:01:43.050Z,13.74
2023-05-03T19:04:16.188Z,13.56
2023-05-03T19:06:52.500Z,13.82
2023-05-03T19:09:25.678Z,13.91
2023-05-03T19:12:00.767Z,13.63
2023-05-03T19:14:34.523Z,13.33
2023-05-03T19:17:12.765Z,13.19
2023-05-03T19:19:54.347Z,13.00
2023-05-03T19:22:27.581Z,13.50
2023-05-03T19:25:01.801Z,13.34
2023-05-03T19:27:36.892Z,13.40
2023-05-03T19:30:13.146Z,13.27
2023-05-03T19:32:50.414Z,13.00
2023-05-03T19:35:24.430Z,12.86
2023-05-03T19:38:06.890Z,12.93
2023-05-03T19:40:43.095Z,12.79
2023-05-03T19:43:17.392Z,13.21
2023-05-03T19:45:53.200Z,13.19
2023-05-03T19:48:30.500Z,12.94
2023-05-03T19:51:05.515Z,12.99
2023-05-03T19:53:39.150Z,13.48
2023-05-03T19:56:13.566Z,13.30
2023-05-03T19:58:46.643Z,13.21
2023-05-03T20:01:22.464Z,13.32
2023-05-03T20:03:57.468Z,13.15
2023-05-03T20:06:33.801Z,12.67
2023-05-03T20:09:06.874Z,12.66
2023-05-03T20:11:42.224Z,13.00
2023-05-03T20:14:18.033Z,12.56
2023-05-03T20:16:52.003Z,12.89
2023-05-03T20:19:28.898Z,13.13
2023-05-03T20:22:04.789Z,12.93
2023-05-03T20:27:27.462Z,12.91
2023-05-03T20:30:04.222Z,13.21
2023-05-03T20:32:41.000Z,12.61
2023-05-03T20:35:15.459Z,12.12
2023-05-03T20:37:48.419Z,12.41
2023-05-03T20:40:23.260Z,12.21
2023-05-03T20:42:56.435Z,12.32
2023-05-03T20:45:32.504Z,12.16
2023-05-03T20:48:05.747Z,12.01
2023-05-03T20:50:40.393Z,12.81
2023-05-03T20:53:13.499Z,12.54
2023-05-03T20:55:46.448Z,12.35
2023-05-03T20:58:22.361Z,12.70
2023-05-03T21:00:57.691Z,12.79
2023-05-03T21:03:31.427Z,12.34
2023-05-03T21:06:07.095Z,12.22
2023-05-03T21:08:40.228Z,12.53
2023-05-03T21:11:14.983Z,12.48
2023-05-03T21:13:49.050Z,11.91
2023-05-03T21:16:23.763Z,11.97
2023-05-03T21:18:59.656Z,12.53
2023-05-03T21:21:36.274Z,12.35
2023-05-03T21:24:14.279Z,12.50
2023-05-03T21:26:49.060Z,12.66
2023-05-03T21:29:22.194Z,11.95
2023-05-03T21:31:57.001Z,12.45
2023-05-03T21:34:33.520Z,12.11
2023-05-03T21:37:09.146Z,12.37
2023-05-03T21:39:57.773Z,12.44
2023-05-03T21:42:34.376Z,12.12
2023-05-03T21:45:10.849Z,12.28
2023-05-03T21:47:43.858Z,12.11
2023-05-03T21:50:19.376Z,12.41
2023-05-03T21:52:53.786Z,12.45
2023-05-03T21:55:29.697Z,12.38
2023-05-03T21:58:02.654Z,11.96
2023-05-03T22:00:36.456Z,12.22
2023-05-03T22:03:09.995Z,11.93
2023-05-03T22:05:47.235Z,11.64
2023-05-03T22:08:21.947Z,11.41
2023-05-03T22:10:56.320Z,11.68
2023-05-03T22:13:30.484Z,11.72
2023-05-03T22:16:06.013Z,11.64
2023-05-03T22:18:38.950Z,11.56
2023-05-03T22:21:11.981Z,11.77
2023-05-03T22:23:46.407Z,11.86
2023-05-03T22:26:19.533Z,12.32
2023-05-03T22:28:52.450Z,11.72
2023-05-03T22:31:26.947Z,11.53
2023-05-03T22:34:00.175Z,11.60
2023-05-03T22:36:33.732Z,11.92
2023-05-03T22:39:08.273Z,12.04
2023-05-03T22:41:41.401Z,11.96
2023-05-03T22:44:14.380Z,11.89
2023-05-03T22:46:48.004Z,11.68
2023-05-03T22:49:21.257Z,12.02
2023-05-03T22:51:54.189Z,12.05
2023-05-03T22:54:28.853Z,12.07
2023-05-03T22:57:02.142Z,12.22
2023-05-03T22:59:34.906Z,12.06
2023-05-03T23:02:07.618Z,11.97
2023-05-03T23:04:40.478Z,11.79
2023-05-03T23:07:13.468Z,11.99
2023-05-03T23:09:48.502Z,11.85
2023-05-03T23:12:21.497Z,11.77
2023-05-03T23:14:54.236Z,12.19
2023-05-03T23:17:29.047Z,12.03
2023-05-03T23:20:01.959Z,12.11
2023-05-03T23:22:34.900Z,11.79
2023-05-03T23:25:09.803Z,12.15
2023-05-03T23:27:43.026Z,11.80
2023-05-03T23:30:16.142Z,12.01
2023-05-03T23:32:49.795Z,12.01
2023-05-03T23:35:23.372Z,12.17
2023-05-03T23:37:56.350Z,11.93
2023-05-03T23:40:30.453Z,12.16
2023-05-03T23:43:03.187Z,12.27
2023-05-03T23:45:35.959Z,12.13
2023-05-03T23:48:09.106Z,12.32
2023-05-03T23:50:41.853Z,12.16
2023-05-03T23:53:14.551Z,12.28
2023-05-03T23:55:48.764Z,12.46
2023-05-03T23:58:21.867Z,12.00
